Time;durP1;ratioP1;P1;durP2;ratioP2;P2;SDS_P1;SDS_P2;PMS_P1;PMS_P2;Temp;Humidity;BMP_temperature;BMP_pressure;BME280_temperature;BME280_humidity;BME280_pressure;Samples;Min_cycle;Max_cycle;Signal;HPM_P1;HPM_P2
2023/05/17 00:02:01;;;;;;;5.10;2.17;;;8.50;99.90;;;;;;5019623;28;20030;-83
2023/05/17 00:04:27;;;;;;;15.30;2.40;;;8.50;99.90;;;;;;5021489;28;20398;-84
2023/05/17 00:06:52;;;;;;;7.53;2.13;;;8.50;99.90;;;;;;5020241;28;20484;-83
2023/05/17 00:09:18;;;;;;;7.50;2.40;;;8.40;99.90;;;;;;5021342;28;20065;-84
2023/05/17 00:11:44;;;;;;;7.87;1.83;;;8.40;99.90;;;;;;5020791;28;20036;-84
2023/05/17 00:14:10;;;;;;;5.43;1.77;;;8.50;99.90;;;;;;5019729;28;20033;-83
2023/05/17 00:16:36;;;;;;;9.47;2.43;;;8.50;99.90;;;;;;5023383;28;20026;-84
2023/05/17 00:19:01;;;;;;;8.23;2.57;;;8.50;99.90;;;;;;5017639;28;20044;-83
2023/05/17 00:21:27;;;;;;;7.57;2.27;;;8.40;99.90;;;;;;5017998;28;20025;-83
2023/05/17 00:23:55;;;;;;;8.30;2.63;;;8.50;99.90;;;;;;5017772;28;20537;-83
2023/05/17 00:26:21;;;;;;;6.43;2.63;;;8.40;99.90;;;;;;5017823;28;20052;-84
2023/05/17 00:28:46;;;;;;;10.97;2.27;;;8.40;99.90;;;;;;5018848;28;20037;-83
2023/05/17 00:31:12;;;;;;;9.60;3.10;;;8.40;99.90;;;;;;5015344;28;20045;-83
2023/05/17 00:33:37;;;;;;;7.10;2.20;;;8.40;99.90;;;;;;5015941;28;20375;-83
2023/05/17 00:36:03;;;;;;;8.13;2.70;;;8.40;99.90;;;;;;5014479;28;20072;-83
2023/05/17 00:38:28;;;;;;;6.40;2.10;;;8.40;99.90;;;;;;5013774;28;20072;-83
2023/05/17 00:40:54;;;;;;;9.87;2.73;;;8.40;99.90;;;;;;5015670;28;20036;-83
2023/05/17 00:43:20;;;;;;;8.30;2.47;;;8.40;99.90;;;;;;5019663;28;20085;-83
2023/05/17 00:45:47;;;;;;;9.57;2.53;;;8.40;99.90;;;;;;5018550;28;20091;-83
2023/05/17 00:48:13;;;;;;;6.63;2.37;;;8.40;99.90;;;;;;5019001;28;20044;-83
2023/05/17 00:50:39;;;;;;;7.70;2.10;;;8.30;99.90;;;;;;5019515;28;20033;-83
2023/05/17 00:53:05;;;;;;;10.60;3.13;;;8.40;99.90;;;;;;5020457;28;20030;-83
2023/05/17 00:55:31;;;;;;;5.67;2.13;;;8.40;99.90;;;;;;5023841;28;20033;-83
2023/05/17 00:57:56;;;;;;;8.37;2.17;;;8.30;99.90;;;;;;5022780;28;20033;-84
2023/05/17 01:00:22;;;;;;;6.57;2.17;;;8.30;99.90;;;;;;5022360;28;20393;-84
2023/05/17 01:02:49;;;;;;;5.03;2.17;;;8.30;99.90;;;;;;5021574;28;20093;-83
2023/05/17 01:05:15;;;;;;;5.10;1.90;;;8.30;99.90;;;;;;5024329;28;20030;-83
2023/05/17 01:07:40;;;;;;;9.67;2.33;;;8.40;99.90;;;;;;5023012;28;20045;-83
2023/05/17 01:10:07;;;;;;;11.47;2.50;;;8.30;99.90;;;;;;5023317;28;20101;-83
2023/05/17 01:12:50;;;;;;;6.20;2.87;;;8.30;99.90;;;;;;5022599;28;20041;-84
2023/05/17 01:15:30;;;;;;;8.27;2.40;;;8.30;99.90;;;;;;5021978;28;20113;-83
2023/05/17 01:18:37;;;;;;;11.00;3.40;;;8.30;99.90;;;;;;5021899;28;21376;-83
2023/05/17 01:21:24;;;;;;;7.63;2.63;;;8.20;99.90;;;;;;4943053;28;20040;-83
2023/05/17 01:24:25;;;;;;;6.37;2.37;;;8.20;99.90;;;;;;4943936;28;20031;-83
2023/05/17 01:26:52;;;;;;;11.13;2.90;;;8.20;99.90;;;;;;4994798;28;20041;-84
2023/05/17 01:29:21;;;;;;;7.73;2.53;;;8.10;99.90;;;;;;5023181;28;20099;-83
2023/05/17 01:31:48;;;;;;;8.80;2.80;;;8.10;99.90;;;;;;5021371;28;20030;-84
2023/05/17 01:34:22;;;;;;;10.33;2.70;;;8.10;99.90;;;;;;5022143;28;20025;-84
2023/05/17 01:36:48;;;;;;;7.63;3.00;;;8.10;99.90;;;;;;5022603;28;20052;-83
2023/05/17 01:39:13;;;;;;;11.63;3.20;;;8.10;99.90;;;;;;5021977;28;20434;-83
2023/05/17 01:41:43;;;;;;;11.07;2.90;;;8.10;99.90;;;;;;5021562;28;20061;-83
2023/05/17 01:44:11;;;;;;;10.37;2.97;;;8.00;99.90;;;;;;5022830;28;20053;-84
2023/05/17 01:46:42;;;;;;;10.90;2.77;;;8.10;99.90;;;;;;5022272;28;20033;-84
2023/05/17 01:49:19;;;;;;;10.03;3.30;;;8.00;99.90;;;;;;5022489;28;20045;-84
2023/05/17 01:51:48;;;;;;;8.57;2.93;;;8.10;99.90;;;;;;5021268;28;20032;-85
2023/05/17 01:54:19;;;;;;;6.83;2.80;;;8.00;99.90;;;;;;5022092;28;20060;-84
2023/05/17 01:56:50;;;;;;;9.87;2.77;;;8.00;99.90;;;;;;5022094;28;20107;-84
2023/05/17 01:59:20;;;;;;;6.47;2.50;;;8.00;99.90;;;;;;5023455;28;20099;-84
2023/05/17 02:01:48;;;;;;;6.93;2.67;;;8.00;99.90;;;;;;5021350;28;20041;-84
2023/05/17 02:04:13;;;;;;;7.73;2.80;;;8.00;99.90;;;;;;5021387;28;20077;-83
2023/05/17 02:06:39;;;;;;;11.53;3.00;;;7.90;99.90;;;;;;5021148;28;20442;-84
2023/05/17 02:09:05;;;;;;;9.97;3.30;;;8.00;99.90;;;;;;5021743;28;20557;-84
2023/05/17 02:11:31;;;;;;;7.40;2.87;;;8.00;99.90;;;;;;5024899;28;20052;-83
2023/05/17 02:13:57;;;;;;;6.47;2.43;;;8.00;99.90;;;;;;5005290;28;20037;-84
2023/05/17 02:16:23;;;;;;;8.53;2.70;;;7.90;99.90;;;;;;5021965;28;20041;-85
2023/05/17 02:18:48;;;;;;;11.17;3.57;;;7.90;99.90;;;;;;5023888;28;20037;-84
2023/05/17 02:21:14;;;;;;;7.90;3.07;;;7.80;99.90;;;;;;5022379;28;20026;-83
2023/05/17 02:23:39;;;;;;;8.33;2.67;;;7.80;99.90;;;;;;5022611;28;20088;-84
2023/05/17 02:26:05;;;;;;;7.20;2.90;;;7.80;99.90;;;;;;5021672;28;20758;-84
2023/05/17 02:28:30;;;;;;;7.10;3.10;;;7.70;99.90;;;;;;5020905;28;20049;-84
2023/05/17 02:30:56;;;;;;;7.43;2.63;;;7.70;99.90;;;;;;5021058;28;20056;-84
2023/05/17 02:33:22;;;;;;;7.20;2.67;;;7.60;99.90;;;;;;5021599;28;20030;-83
2023/05/17 02:35:51;;;;;;;8.87;2.90;;;7.70;99.90;;;;;;5021875;28;20029;-84
2023/05/17 02:38:16;;;;;;;7.13;2.93;;;7.60;99.90;;;;;;5023239;28;20128;-83
2023/05/17 02:40:44;;;;;;;8.40;2.90;;;7.60;99.90;;;;;;5019501;28;20094;-84
2023/05/17 02:43:09;;;;;;;14.83;3.67;;;7.50;99.90;;;;;;5019980;28;20394;-84
2023/05/17 02:45:35;;;;;;;15.37;3.07;;;7.50;99.90;;;;;;5022293;28;20033;-84
2023/05/17 02:48:00;;;;;;;8.30;2.67;;;7.50;99.90;;;;;;5024879;28;20030;-84
2023/05/17 02:50:26;;;;;;;6.50;2.80;;;7.40;99.90;;;;;;5022570;28;20036;-84
2023/05/17 02:52:51;;;;;;;6.10;2.40;;;7.50;99.90;;;;;;5021256;28;20057;-85
2023/05/17 02:55:17;;;;;;;6.53;2.40;;;7.40;99.90;;;;;;5020442;28;20087;-84
2023/05/17 02:57:42;;;;;;;7.40;2.60;;;7.40;99.90;;;;;;5021306;28;20033;-84
2023/05/17 03:00:08;;;;;;;5.87;2.40;;;7.30;99.90;;;;;;5021073;28;20037;-84
2023/05/17 03:02:34;;;;;;;9.37;2.43;;;7.30;99.90;;;;;;5020384;28;20045;-84
2023/05/17 03:04:59;;;;;;;7.03;2.80;;;7.30;99.90;;;;;;5020702;28;20034;-84
2023/05/17 03:07:25;;;;;;;9.53;2.60;;;7.30;99.90;;;;;;5021974;28;20044;-83
2023/05/17 03:09:50;;;;;;;8.37;2.30;;;7.30;99.90;;;;;;5020038;28;20037;-84
2023/05/17 03:12:16;;;;;;;6.37;2.37;;;7.30;99.90;;;;;;5020707;28;20025;-84
2023/05/17 03:14:41;;;;;;;8.43;2.60;;;7.20;99.90;;;;;;5021223;28;20042;-84
2023/05/17 03:17:07;;;;;;;7.20;2.43;;;7.20;99.90;;;;;;5019924;28;20041;-84
2023/05/17 03:19:32;;;;;;;5.17;2.20;;;7.20;99.90;;;;;;5020595;28;20089;-84
2023/05/17 03:21:58;;;;;;;6.30;2.30;;;7.20;99.90;;;;;;5019945;28;20026;-84
2023/05/17 03:24:23;;;;;;;7.53;2.53;;;7.20;99.90;;;;;;5020190;28;20025;-83
2023/05/17 03:26:49;;;;;;;6.07;2.17;;;7.20;99.90;;;;;;5022066;28;20430;-84
2023/05/17 03:29:14;;;;;;;10.17;2.83;;;7.10;99.90;;;;;;5019940;28;20494;-83
2023/05/17 03:31:40;;;;;;;9.57;2.50;;;7.10;99.90;;;;;;5019978;28;20118;-84
2023/05/17 03:34:05;;;;;;;7.77;2.30;;;7.10;99.90;;;;;;5020246;28;20036;-84
2023/05/17 03:36:33;;;;;;;8.90;2.50;;;7.10;99.90;;;;;;5019825;28;20021;-84
2023/05/17 03:38:59;;;;;;;4.20;2.20;;;7.10;99.90;;;;;;5021605;28;20038;-84
2023/05/17 03:41:24;;;;;;;5.27;2.20;;;7.10;99.90;;;;;;5020419;28;20040;-84
2023/05/17 03:43:50;;;;;;;9.07;2.20;;;7.10;99.90;;;;;;5019124;28;20025;-84
2023/05/17 03:46:16;;;;;;;8.80;2.17;;;7.10;99.90;;;;;;5019387;28;20153;-83
2023/05/17 03:48:41;;;;;;;5.70;2.50;;;7.10;99.90;;;;;;5020743;28;20046;-84
2023/05/17 03:51:07;;;;;;;6.83;2.33;;;7.00;99.90;;;;;;5021924;28;20040;-84
2023/05/17 03:53:32;;;;;;;7.10;2.07;;;7.00;99.90;;;;;;5020639;28;20133;-84
2023/05/17 03:55:58;;;;;;;6.03;2.23;;;7.10;99.90;;;;;;5019228;28;20033;-84
2023/05/17 03:58:23;;;;;;;8.20;2.50;;;7.10;99.90;;;;;;5020067;28;20094;-83
2023/05/17 04:00:49;;;;;;;5.33;2.40;;;7.10;99.90;;;;;;5020618;28;20385;-84
2023/05/17 04:03:14;;;;;;;6.03;2.40;;;7.10;99.90;;;;;;5019374;28;20025;-84
2023/05/17 04:05:40;;;;;;;7.27;2.27;;;7.10;99.90;;;;;;5018913;28;20076;-84
2023/05/17 04:08:06;;;;;;;7.63;2.20;;;7.10;99.90;;;;;;5020487;28;20053;-84
2023/05/17 04:10:31;;;;;;;4.57;2.53;;;7.20;99.90;;;;;;5018604;28;20030;-84
2023/05/17 04:12:57;;;;;;;6.57;2.50;;;7.20;99.90;;;;;;5017912;28;20033;-83
2023/05/17 04:15:22;;;;;;;10.37;2.50;;;7.20;99.90;;;;;;5018481;28;20029;-84
2023/05/17 04:17:48;;;;;;;9.63;2.77;;;7.20;99.90;;;;;;5018941;28;20037;-84
2023/05/17 04:20:14;;;;;;;7.23;2.70;;;7.20;99.90;;;;;;5017284;28;20042;-84
2023/05/17 04:22:39;;;;;;;10.93;4.23;;;7.30;99.90;;;;;;5015877;28;20056;-83
2023/05/17 04:25:05;;;;;;;5.63;2.37;;;7.30;99.90;;;;;;5014258;28;20061;-84
2023/05/17 04:27:33;;;;;;;7.43;2.60;;;7.30;99.90;;;;;;5015190;28;20029;-83
2023/05/17 04:29:59;;;;;;;6.50;2.27;;;7.30;99.90;;;;;;5001666;28;20022;-84
2023/05/17 04:32:24;;;;;;;8.13;3.10;;;7.40;99.90;;;;;;5018256;28;20888;-84
2023/05/17 04:34:50;;;;;;;5.87;2.90;;;7.40;99.90;;;;;;5023941;28;20026;-85
2023/05/17 04:37:16;;;;;;;7.27;2.33;;;7.40;99.90;;;;;;5023086;28;20060;-83
2023/05/17 04:39:41;;;;;;;7.27;2.07;;;7.40;99.90;;;;;;5023289;28;20605;-84
2023/05/17 04:42:07;;;;;;;6.87;2.13;;;7.40;99.90;;;;;;5022737;28;20022;-83
2023/05/17 04:44:33;;;;;;;4.93;2.40;;;7.50;99.90;;;;;;5021868;28;20246;-83
2023/05/17 04:46:58;;;;;;;6.97;2.03;;;7.50;99.90;;;;;;5020491;28;20056;-82
2023/05/17 04:49:24;;;;;;;4.83;1.80;;;7.50;99.90;;;;;;5021483;28;20044;-84
2023/05/17 04:51:50;;;;;;;7.03;2.07;;;7.50;99.90;;;;;;5020951;28;20034;-83
2023/05/17 04:54:16;;;;;;;8.47;2.23;;;7.50;99.90;;;;;;5021131;28;20044;-82
2023/05/17 04:56:41;;;;;;;5.27;1.73;;;7.50;99.90;;;;;;5020546;28;20038;-84
2023/05/17 04:59:06;;;;;;;8.20;2.80;;;7.50;99.90;;;;;;5021158;28;20065;-83
2023/05/17 05:01:34;;;;;;;4.70;2.00;;;7.50;99.90;;;;;;5018959;28;20110;-83
2023/05/17 05:03:59;;;;;;;4.70;1.70;;;7.60;99.90;;;;;;5016357;28;20030;-83
2023/05/17 05:06:25;;;;;;;10.50;2.20;;;7.60;99.90;;;;;;5021784;28;20037;-83
2023/05/17 05:08:51;;;;;;;7.83;2.37;;;7.60;99.90;;;;;;5021411;28;20174;-84
2023/05/17 05:11:16;;;;;;;6.70;1.83;;;7.60;99.90;;;;;;5021973;28;20037;-84
2023/05/17 05:13:42;;;;;;;6.07;2.60;;;7.70;99.90;;;;;;5020487;28;20034;-83
2023/05/17 05:16:08;;;;;;;7.03;2.33;;;7.70;99.90;;;;;;5017811;28;20040;-84
2023/05/17 05:18:33;;;;;;;2.97;1.90;;;7.80;99.90;;;;;;5003943;28;20026;-84
2023/05/17 05:20:59;;;;;;;4.27;2.07;;;7.90;99.90;;;;;;5022124;28;20037;-84
2023/05/17 05:23:25;;;;;;;4.27;2.00;;;7.90;99.90;;;;;;5021737;28;20040;-83
2023/05/17 05:25:50;;;;;;;7.53;2.63;;;7.90;99.90;;;;;;5020984;28;20140;-83
2023/05/17 05:28:16;;;;;;;6.93;2.10;;;7.80;99.90;;;;;;5021814;28;20052;-83
2023/05/17 05:30:41;;;;;;;7.37;1.80;;;7.90;99.90;;;;;;5021990;28;20072;-83
2023/05/17 05:33:07;;;;;;;3.33;1.90;;;7.90;99.90;;;;;;5021005;28;20362;-84
2023/05/17 05:35:32;;;;;;;8.87;2.10;;;7.80;99.90;;;;;;5019857;28;20022;-85
2023/05/17 05:37:58;;;;;;;9.03;2.30;;;7.90;99.90;;;;;;5020925;28;20551;-84
2023/05/17 05:40:24;;;;;;;7.13;2.00;;;7.90;99.90;;;;;;5022244;28;20040;-83
2023/05/17 05:42:52;;;;;;;5.50;1.63;;;7.90;99.90;;;;;;5023082;28;20056;-83
2023/05/17 05:45:18;;;;;;;7.87;1.90;;;7.90;99.90;;;;;;5005414;28;20037;-83
2023/05/17 05:47:43;;;;;;;8.33;2.13;;;7.90;99.90;;;;;;5023204;28;20917;-82
2023/05/17 05:50:10;;;;;;;9.03;2.13;;;8.00;99.90;;;;;;5021333;28;20053;-84
2023/05/17 05:52:35;;;;;;;7.33;1.97;;;8.00;99.90;;;;;;5018879;28;20034;-84
2023/05/17 05:55:01;;;;;;;7.47;1.77;;;8.00;99.90;;;;;;5019625;28;20032;-83
2023/05/17 05:57:26;;;;;;;6.43;2.00;;;7.90;99.90;;;;;;5021590;28;20029;-84
2023/05/17 05:59:52;;;;;;;6.13;2.37;;;7.90;99.90;;;;;;5017870;28;20034;-83
2023/05/17 06:02:18;;;;;;;11.57;3.37;;;7.90;99.90;;;;;;5000891;28;21283;-84
2023/05/17 06:04:45;;;;;;;5.67;2.10;;;7.90;99.90;;;;;;5019725;28;20572;-83
2023/05/17 06:07:12;;;;;;;6.73;1.67;;;8.00;99.90;;;;;;5020954;28;20025;-84
2023/05/17 06:09:37;;;;;;;5.47;2.00;;;7.90;99.90;;;;;;5020427;28;20025;-83
2023/05/17 06:12:03;;;;;;;5.13;2.27;;;7.90;99.90;;;;;;5019689;28;20033;-83
2023/05/17 06:14:29;;;;;;;9.93;2.00;;;7.90;99.90;;;;;;5020148;28;20037;-83
2023/05/17 06:16:54;;;;;;;3.67;1.30;;;7.90;99.90;;;;;;5023098;28;20080;-84
2023/05/17 06:19:20;;;;;;;7.10;2.57;;;7.90;99.90;;;;;;5019535;28;20025;-83
2023/05/17 06:21:45;;;;;;;11.47;4.60;;;8.00;99.90;;;;;;5022737;28;20060;-84
2023/05/17 06:24:11;;;;;;;5.60;2.13;;;8.10;99.90;;;;;;5021497;28;20565;-83
2023/05/17 06:26:36;;;;;;;8.27;2.47;;;8.20;99.90;;;;;;5011238;28;20060;-84
2023/05/17 06:29:02;;;;;;;8.40;2.87;;;8.40;99.90;;;;;;5016749;28;20026;-83
2023/05/17 06:31:28;;;;;;;7.70;2.10;;;8.40;99.90;;;;;;5015245;28;20026;-85
2023/05/17 06:33:53;;;;;;;9.53;2.73;;;8.50;99.90;;;;;;5014273;28;20623;-84
2023/05/17 06:36:19;;;;;;;6.00;2.73;;;8.50;99.90;;;;;;5013441;28;20029;-85
2023/05/17 06:38:45;;;;;;;7.73;1.70;;;8.60;99.90;;;;;;5016002;28;20828;-84
2023/05/17 06:41:10;;;;;;;6.53;2.10;;;8.60;99.90;;;;;;4998349;28;20063;-83
2023/05/17 06:43:36;;;;;;;14.03;3.13;;;8.60;99.90;;;;;;5014575;28;20037;-85
2023/05/17 06:46:01;;;;;;;8.13;2.23;;;8.70;99.90;;;;;;5015848;28;20828;-84
2023/05/17 06:48:27;;;;;;;3.77;1.73;;;8.70;99.90;;;;;;5015350;28;20126;-85
2023/05/17 06:50:52;;;;;;;6.37;1.80;;;8.80;99.90;;;;;;5012596;28;20072;-85
2023/05/17 06:53:18;;;;;;;7.47;1.80;;;8.80;99.90;;;;;;5013031;28;20037;-84
2023/05/17 06:55:44;;;;;;;7.47;2.00;;;8.80;99.90;;;;;;5014155;28;20072;-85
2023/05/17 06:58:09;;;;;;;8.13;2.00;;;8.80;99.90;;;;;;5014175;28;20033;-84
2023/05/17 07:00:35;;;;;;;20.00;9.03;;;8.90;99.90;;;;;;5011579;28;20467;-85
2023/05/17 07:03:01;;;;;;;8.63;2.20;;;9.00;99.90;;;;;;4993119;28;20029;-85
2023/05/17 07:05:29;;;;;;;6.70;1.90;;;9.00;99.90;;;;;;5010556;28;20044;-85
2023/05/17 07:07:54;;;;;;;9.40;2.30;;;9.10;99.90;;;;;;5014514;28;20176;-84
2023/05/17 07:10:20;;;;;;;5.90;1.83;;;9.10;99.90;;;;;;5013959;28;20131;-85
2023/05/17 07:12:46;;;;;;;6.97;1.80;;;9.20;99.90;;;;;;5013732;28;20516;-83
2023/05/17 07:15:11;;;;;;;7.20;1.60;;;9.20;99.90;;;;;;5012022;28;20037;-84
2023/05/17 07:17:37;;;;;;;9.47;1.90;;;9.30;99.90;;;;;;5010114;28;20041;-85
2023/05/17 07:20:04;;;;;;;8.23;2.37;;;9.40;99.90;;;;;;5011571;28;20026;-85
2023/05/17 07:22:30;;;;;;;7.37;1.90;;;9.50;99.90;;;;;;5011482;28;20038;-86
2023/05/17 07:24:55;;;;;;;4.63;1.70;;;9.50;99.90;;;;;;5013200;28;20136;-85
2023/05/17 07:27:21;;;;;;;5.17;2.20;;;9.50;99.90;;;;;;5013012;28;20033;-85
2023/05/17 07:29:46;;;;;;;11.83;3.60;;;9.60;99.90;;;;;;4977739;28;1055617;-84
2023/05/17 07:32:12;;;;;;;5.67;1.90;;;9.60;99.90;;;;;;5014231;28;20052;-85
2023/05/17 07:34:38;;;;;;;12.90;2.00;;;9.70;99.90;;;;;;5013192;28;20116;-84
2023/05/17 07:37:03;;;;;;;6.90;2.53;;;9.80;99.90;;;;;;5013386;28;20025;-85
2023/05/17 07:39:38;;;;;;;7.03;2.03;;;9.80;99.90;;;;;;5012417;28;20683;-84
2023/05/17 07:42:07;;;;;;;3.88;1.65;;;9.90;99.90;;;;;;5010864;28;20033;-85
2023/05/17 07:44:32;;;;;;;5.50;1.90;;;9.90;99.90;;;;;;5012049;28;20505;-86
2023/05/17 07:46:58;;;;;;;7.03;1.70;;;10.00;99.90;;;;;;5011461;28;20135;-85
2023/05/17 07:49:23;;;;;;;4.43;2.10;;;10.10;99.90;;;;;;5014677;28;20402;-85
2023/05/17 07:51:49;;;;;;;7.60;1.83;;;10.10;99.90;;;;;;5012631;28;20034;-86
2023/05/17 07:54:23;;;;;;;7.97;2.20;;;10.10;99.90;;;;;;5010572;28;20033;-85
2023/05/17 07:56:49;;;;;;;5.30;1.90;;;10.10;99.90;;;;;;5011494;28;21467;-86
2023/05/17 07:59:15;;;;;;;9.30;1.93;;;10.20;99.90;;;;;;5012091;28;20033;-85
2023/05/17 08:01:40;;;;;;;7.10;2.50;;;10.30;99.90;;;;;;5009989;28;20128;-86
2023/05/17 08:04:06;;;;;;;8.07;2.67;;;10.40;99.90;;;;;;5008290;28;20025;-85
2023/05/17 08:06:31;;;;;;;8.40;2.30;;;10.50;99.90;;;;;;5008792;28;20660;-85
2023/05/17 08:08:57;;;;;;;7.60;2.10;;;10.60;99.90;;;;;;5010553;28;20124;-85
2023/05/17 08:11:23;;;;;;;5.78;1.73;;;10.80;99.90;;;;;;5007572;28;20036;-85
2023/05/17 08:13:48;;;;;;;6.27;1.60;;;11.00;99.90;;;;;;5004644;28;20100;-85
2023/05/17 08:16:13;;;;;;;9.27;1.75;;;11.10;99.90;;;;;;5006354;28;20329;-85
2023/05/17 08:18:40;;;;;;;6.65;1.77;;;11.10;99.90;;;;;;5007225;28;20048;-84
2023/05/17 08:21:05;;;;;;;7.63;2.13;;;11.10;99.90;;;;;;5004477;28;20041;-85
2023/05/17 08:23:31;;;;;;;9.02;2.08;;;11.00;99.90;;;;;;5005396;28;20041;-85
2023/05/17 08:25:56;;;;;;;8.07;1.73;;;10.90;99.90;;;;;;5009345;28;20108;-85
2023/05/17 08:28:22;;;;;;;7.68;1.85;;;10.90;99.90;;;;;;5010860;28;20068;-86
2023/05/17 08:30:47;;;;;;;7.07;2.35;;;10.90;99.90;;;;;;5013397;28;20044;-85
2023/05/17 08:33:13;;;;;;;5.57;1.83;;;10.90;99.90;;;;;;5009115;28;20029;-85
2023/05/17 08:35:38;;;;;;;5.88;1.60;;;11.00;99.90;;;;;;5011329;28;20038;-85
2023/05/17 08:38:04;;;;;;;7.18;1.83;;;10.80;99.90;;;;;;5013495;28;20033;-86
2023/05/17 08:40:30;;;;;;;8.98;1.67;;;10.90;99.90;;;;;;5014291;28;20037;-85
2023/05/17 08:42:56;;;;;;;7.00;2.10;;;10.90;99.90;;;;;;5009912;28;20397;-86
2023/05/17 08:45:21;;;;;;;6.27;2.17;;;10.90;99.90;;;;;;5008967;28;20079;-86
2023/05/17 08:47:47;;;;;;;6.88;1.88;;;11.00;99.90;;;;;;5013433;28;20076;-85
2023/05/17 08:50:14;;;;;;;8.70;3.58;;;11.10;99.90;;;;;;5012707;28;20116;-85
2023/05/17 08:52:43;;;;;;;6.88;2.78;;;11.20;99.90;;;;;;5009271;28;20038;-84
2023/05/17 08:55:10;;;;;;;7.05;3.30;;;11.30;99.90;;;;;;5010163;28;21044;-85
2023/05/17 08:57:37;;;;;;;7.00;2.67;;;11.40;99.90;;;;;;5009700;28;20037;-86
2023/05/17 09:00:13;;;;;;;9.95;3.20;;;11.40;99.90;;;;;;5007536;28;20037;-86
2023/05/17 09:02:40;;;;;;;7.50;2.40;;;11.40;99.90;;;;;;5009869;28;20142;-85
2023/05/17 09:05:07;;;;;;;9.68;3.70;;;11.30;99.90;;;;;;5010640;28;20068;-86
2023/05/17 09:07:33;;;;;;;11.90;3.42;;;11.30;99.90;;;;;;5011109;28;20087;-86
2023/05/17 09:09:58;;;;;;;8.30;2.88;;;11.40;99.90;;;;;;5008157;28;20029;-85
2023/05/17 09:12:24;;;;;;;20.75;6.80;;;11.50;99.90;;;;;;5007067;28;20037;-86
2023/05/17 09:14:50;;;;;;;5.10;1.60;;;11.70;99.90;;;;;;5012730;28;20101;-85
2023/05/17 09:17:17;;;;;;;7.40;2.00;;;11.90;99.90;;;;;;5012345;28;20459;-86
2023/05/17 09:19:45;;;;;;;6.38;1.70;;;12.00;99.90;;;;;;5012930;28;20056;-86
2023/05/17 09:22:16;;;;;;;6.15;1.83;;;12.00;99.90;;;;;;5011691;28;20911;-86
2023/05/17 09:24:42;;;;;;;4.85;1.67;;;11.90;99.90;;;;;;5015212;28;20041;-84
2023/05/17 09:27:13;;;;;;;6.53;1.77;;;12.10;99.90;;;;;;5014587;28;20033;-84
2023/05/17 09:29:38;;;;;;;6.93;2.15;;;12.30;99.90;;;;;;5011549;28;21313;-85
2023/05/17 09:32:19;;;;;;;7.05;1.70;;;12.70;99.90;;;;;;5010901;28;20039;-86
2023/05/17 09:34:45;;;;;;;6.30;1.73;;;13.00;99.90;;;;;;5013158;28;20037;-85
2023/05/17 09:37:16;;;;;;;16.70;2.33;;;13.10;99.90;;;;;;5011090;28;20041;-85
2023/05/17 09:39:46;;;;;;;3.47;1.50;;;13.40;99.90;;;;;;5011895;28;20334;-85
2023/05/17 09:42:12;;;;;;;3.80;1.50;;;13.40;99.90;;;;;;5008954;28;20045;-86
2023/05/17 09:44:56;;;;;;;7.07;1.60;;;13.30;99.90;;;;;;5011376;28;20087;-85
2023/05/17 09:47:22;;;;;;;7.05;2.05;;;13.20;99.90;;;;;;5011271;28;20133;-86
2023/05/17 09:49:48;;;;;;;6.68;1.80;;;13.20;99.90;;;;;;5014114;28;20034;-85
2023/05/17 09:52:19;;;;;;;6.15;1.65;;;13.30;99.90;;;;;;5019497;28;20045;-85
2023/05/17 09:54:52;;;;;;;4.15;1.70;;;13.40;99.90;;;;;;5020805;28;20068;-85
2023/05/17 09:57:18;;;;;;;3.38;1.45;;;13.50;99.90;;;;;;5022628;28;20121;-84
2023/05/17 09:59:45;;;;;;;8.35;2.00;;;13.70;99.90;;;;;;5021998;28;20112;-85
2023/05/17 10:02:26;;;;;;;3.63;1.52;;;13.90;99.90;;;;;;5004829;28;20325;-85
2023/05/17 10:04:54;;;;;;;4.95;1.75;;;14.20;99.90;;;;;;5022215;28;20029;-87
2023/05/17 10:07:20;;;;;;;5.68;1.98;;;14.40;99.90;;;;;;5021732;28;20044;-86
2023/05/17 10:09:51;;;;;;;4.80;1.50;;;14.70;99.90;;;;;;5021805;28;20026;-86
2023/05/17 10:12:20;;;;;;;5.53;2.03;;;14.70;99.90;;;;;;5020848;28;20123;-85
2023/05/17 10:14:46;;;;;;;4.22;1.55;;;14.40;99.90;;;;;;5021778;28;20057;-86
2023/05/17 10:17:13;;;;;;;9.10;3.03;;;14.30;99.90;;;;;;5022462;28;20246;-86
2023/05/17 10:19:38;;;;;;;4.85;1.80;;;14.40;99.90;;;;;;5022750;28;21026;-86
2023/05/17 10:22:05;;;;;;;8.43;3.60;;;14.50;99.90;;;;;;5019751;28;20018;-85
2023/05/17 10:24:33;;;;;;;6.32;1.80;;;14.80;99.90;;;;;;5021291;28;20029;-86
2023/05/17 10:26:58;;;;;;;4.68;1.92;;;15.00;99.90;;;;;;5021751;28;20033;-85
2023/05/17 10:29:25;;;;;;;4.75;1.70;;;15.20;99.90;;;;;;5021849;28;20033;-85
2023/05/17 10:31:51;;;;;;;5.15;1.60;;;15.20;99.90;;;;;;5018598;28;20099;-83
2023/05/17 10:34:18;;;;;;;4.18;1.60;;;15.60;99.90;;;;;;5017887;28;20033;-82
2023/05/17 10:36:44;;;;;;;4.60;1.20;;;15.80;99.90;;;;;;5018061;28;20037;-82
2023/05/17 10:39:10;;;;;;;4.00;1.52;;;15.90;99.90;;;;;;5017205;28;20040;-83
2023/05/17 10:41:39;;;;;;;2.85;1.80;;;16.00;99.90;;;;;;5015687;28;20022;-87
2023/05/17 10:44:07;;;;;;;4.93;1.77;;;16.00;99.90;;;;;;5020688;28;20021;-85
2023/05/17 10:46:33;;;;;;;4.63;1.90;;;16.10;99.90;;;;;;5018883;28;20117;-86
2023/05/17 10:48:59;;;;;;;5.80;1.67;;;16.20;99.90;;;;;;5018553;28;20104;-85
2023/05/17 10:51:31;;;;;;;7.55;2.38;;;15.90;99.90;;;;;;5010321;28;20030;-81
2023/05/17 10:54:20;;;;;;;5.18;2.00;;;15.50;99.90;;;;;;5011109;28;20037;-78
2023/05/17 10:56:50;;;;;;;4.18;1.90;;;15.10;99.90;;;;;;5015536;28;20034;-85
2023/05/17 10:59:26;;;;;;;5.38;1.80;;;14.80;99.90;;;;;;5017319;28;20625;-86
2023/05/17 11:02:08;;;;;;;7.10;2.38;;;14.60;99.90;;;;;;5019248;28;20052;-85
2023/05/17 11:04:39;;;;;;;5.13;1.63;;;14.90;99.90;;;;;;5017117;28;20061;-86
2023/05/17 11:07:26;;;;;;;3.78;1.92;;;15.30;99.90;;;;;;5019383;28;20030;-85
2023/05/17 11:10:13;;;;;;;4.70;2.20;;;15.60;99.90;;;;;;5017985;28;20052;-85
2023/05/17 11:12:40;;;;;;;3.97;1.80;;;15.70;99.90;;;;;;5015548;28;20112;-85
2023/05/17 11:15:07;;;;;;;3.50;1.95;;;15.60;99.90;;;;;;5017763;28;20038;-84
2023/05/17 11:17:50;;;;;;;3.70;1.70;;;15.40;99.90;;;;;;5017554;28;20029;-87
2023/05/17 11:20:15;;;;;;;8.23;2.13;;;15.40;99.90;;;;;;5019849;28;20021;-85
2023/05/17 11:22:48;;;;;;;9.07;2.20;;;15.60;99.90;;;;;;5017810;28;20364;-86
2023/05/17 11:25:13;;;;;;;6.70;1.92;;;15.60;99.90;;;;;;5019306;28;20087;-85
2023/05/17 11:27:44;;;;;;;4.30;1.80;;;15.50;99.90;;;;;;5018097;28;20125;-84
2023/05/17 11:30:27;;;;;;;6.68;1.75;;;15.50;99.90;;;;;;5016189;28;20022;-86
2023/05/17 11:33:00;;;;;;;5.93;1.88;;;15.50;99.90;;;;;;5017364;28;20038;-85
2023/05/17 11:35:37;;;;;;;6.13;1.80;;;15.50;99.90;;;;;;5017845;28;20025;-86
2023/05/17 11:38:23;;;;;;;7.13;2.00;;;15.40;99.90;;;;;;5018148;28;20049;-84
2023/05/17 11:40:53;;;;;;;6.55;2.00;;;15.40;99.90;;;;;;5016107;28;20033;-85
2023/05/17 11:43:24;;;;;;;3.70;2.00;;;15.60;99.90;;;;;;5016238;28;20029;-84
2023/05/17 11:45:51;;;;;;;4.35;1.90;;;15.60;99.90;;;;;;5016016;28;20041;-85
2023/05/17 11:48:20;;;;;;;5.18;2.05;;;15.90;99.90;;;;;;5015599;28;20513;-85
2023/05/17 11:50:47;;;;;;;4.53;2.35;;;15.80;99.90;;;;;;5015331;28;20039;-84
2023/05/17 11:53:13;;;;;;;5.07;2.17;;;15.90;99.90;;;;;;5015928;28;20041;-84
2023/05/17 11:55:46;;;;;;;6.35;2.33;;;16.30;99.90;;;;;;5015965;28;20585;-84
2023/05/17 11:58:17;;;;;;;8.05;2.08;;;16.60;99.90;;;;;;5014733;28;20124;-85
2023/05/17 12:00:43;;;;;;;4.63;2.10;;;17.20;99.90;;;;;;5014662;28;20093;-85
2023/05/17 12:03:20;;;;;;;5.18;2.40;;;17.40;99.90;;;;;;5012732;28;20048;-85
2023/05/17 12:05:48;;;;;;;4.60;2.20;;;17.80;99.90;;;;;;5010642;28;20038;-86
2023/05/17 12:08:16;;;;;;;7.97;2.40;;;17.90;99.90;;;;;;5012597;28;20422;-84
2023/05/17 12:10:49;;;;;;;5.15;2.30;;;17.50;99.90;;;;;;5010717;28;20045;-84
2023/05/17 12:13:15;;;;;;;5.10;2.47;;;16.90;99.90;;;;;;5015493;28;20037;-86
2023/05/17 12:15:47;;;;;;;7.07;2.90;;;16.10;99.90;;;;;;5014488;28;20063;-85
2023/05/17 12:18:13;;;;;;;6.53;2.33;;;15.50;99.90;;;;;;5018002;28;20030;-84
2023/05/17 12:20:52;;;;;;;5.82;2.30;;;15.10;99.90;;;;;;5013267;28;20669;-84
2023/05/17 12:23:28;;;;;;;5.80;2.45;;;14.90;99.90;;;;;;5014181;28;20025;-84
2023/05/17 12:26:17;;;;;;;4.53;2.70;;;14.80;99.90;;;;;;5012282;28;20029;-84
2023/05/17 12:28:44;;;;;;;5.70;2.22;;;14.90;99.90;;;;;;5006780;28;20188;-79
2023/05/17 12:31:19;;;;;;;8.15;2.30;;;14.90;99.90;;;;;;5005363;28;20056;-81
2023/05/17 12:33:46;;;;;;;8.35;3.92;;;14.80;99.90;;;;;;5005954;28;20118;-78
2023/05/17 12:36:13;;;;;;;5.32;2.60;;;14.80;99.90;;;;;;5005919;28;20099;-78
2023/05/17 12:38:40;;;;;;;5.30;2.38;;;15.10;99.90;;;;;;5007170;28;20033;-78
2023/05/17 12:41:09;;;;;;;5.55;2.70;;;15.60;99.90;;;;;;5007202;28;21442;-78
2023/05/17 12:43:37;;;;;;;6.55;2.38;;;15.90;99.90;;;;;;5005008;28;20041;-78
2023/05/17 12:46:08;;;;;;;6.63;2.17;;;15.90;99.90;;;;;;5006520;28;20120;-78
2023/05/17 12:48:39;;;;;;;5.22;2.42;;;15.70;99.90;;;;;;5006968;28;20125;-80
2023/05/17 12:51:08;;;;;;;4.78;2.15;;;15.90;99.90;;;;;;5010580;28;21216;-78
2023/05/17 12:53:36;;;;;;;5.18;2.45;;;16.40;99.90;;;;;;5010383;28;20037;-79
2023/05/17 12:56:02;;;;;;;6.13;2.80;;;17.00;99.90;;;;;;5009524;28;20049;-80